Time;durP1;ratioP1;P1;durP2;ratioP2;P2;SDS_P1;SDS_P2;PMS_P1;PMS_P2;Temp;Humidity;BMP_temperature;BMP_pressure;BME280_temperature;BME280_humidity;BME280_pressure;Samples;Min_cycle;Max_cycle;Signal;HPM_P1;HPM_P2
2022/05/28 00:01:21;;;;;;;5.32;2.35;;;;;;;;;;5074477;28;20411;-87
2022/05/28 00:03:51;;;;;;;6.25;2.05;;;;;;;;;;5074113;28;20045;-85
2022/05/28 00:06:19;;;;;;;6.03;1.95;;;;;;;;;;5072581;28;20082;-86
2022/05/28 00:08:47;;;;;;;6.15;2.17;;;;;;;;;;5073995;28;20052;-86
2022/05/28 00:11:24;;;;;;;10.55;1.92;;;;;;;;;;5072876;28;20127;-87
2022/05/28 00:13:52;;;;;;;5.22;2.40;;;;;;;;;;5072180;28;20179;-86
2022/05/28 00:16:20;;;;;;;16.20;3.40;;;;;;;;;;5072679;28;20128;-85
2022/05/28 00:18:49;;;;;;;3.58;2.00;;;;;;;;;;5072635;28;20538;-86
2022/05/28 00:21:16;;;;;;;6.82;2.45;;;;;;;;;;5072675;28;20412;-86
2022/05/28 00:23:46;;;;;;;8.68;2.25;;;;;;;;;;5073861;28;20103;-86
2022/05/28 00:26:14;;;;;;;7.32;2.72;;;;;;;;;;5073432;28;20044;-86
2022/05/28 00:28:43;;;;;;;11.00;2.33;;;;;;;;;;5073650;28;20075;-86
2022/05/28 00:31:10;;;;;;;7.35;2.70;;;;;;;;;;5073315;28;20458;-86
2022/05/28 00:33:37;;;;;;;7.30;2.08;;;;;;;;;;5072584;28;20455;-86
2022/05/28 00:36:08;;;;;;;8.98;2.63;;;;;;;;;;5072288;28;20136;-86
2022/05/28 00:38:37;;;;;;;9.82;2.30;;;;;;;;;;5072306;28;20054;-86
2022/05/28 00:41:04;;;;;;;6.07;2.63;;;;;;;;;;5072439;28;20127;-86
2022/05/28 00:43:31;;;;;;;7.05;2.22;;;;;;;;;;5072314;28;20080;-86
2022/05/28 00:46:04;;;;;;;6.18;2.13;;;;;;;;;;5073106;28;20048;-85
2022/05/28 00:48:33;;;;;;;10.32;2.65;;;;;;;;;;5072440;28;20091;-86
2022/05/28 00:51:04;;;;;;;8.75;2.30;;;;;;;;;;5073155;28;20048;-86
2022/05/28 00:53:32;;;;;;;6.95;2.55;;;;;;;;;;5073295;28;20123;-86
2022/05/28 00:55:59;;;;;;;7.03;2.10;;;;;;;;;;5072092;28;20055;-88
2022/05/28 00:58:26;;;;;;;5.13;2.28;;;;;;;;;;5073537;28;20066;-87
2022/05/28 01:00:54;;;;;;;8.63;1.95;;;;;;;;;;5071911;28;20056;-86
2022/05/28 01:03:27;;;;;;;8.60;2.10;;;;;;;;;;5072133;28;20059;-86
2022/05/28 01:05:54;;;;;;;;;;;;;;;;;;5073247;28;20127;-86
2022/05/28 01:08:33;;;;;;;10.63;2.13;;;;;;;;;;5073111;28;19920;-86
2022/05/28 01:11:03;;;;;;;9.90;2.00;;;;;;;;;;5072724;28;20500;-85
2022/05/28 01:13:35;;;;;;;6.45;1.90;;;;;;;;;;5071960;28;20127;-86
2022/05/28 01:16:09;;;;;;;10.02;2.38;;;;;;;;;;5072802;28;20048;-86
2022/05/28 01:18:40;;;;;;;11.48;2.15;;;;;;;;;;5073015;28;20044;-86
2022/05/28 01:21:09;;;;;;;6.10;1.77;;;;;;;;;;5071646;28;20066;-86
2022/05/28 01:23:50;;;;;;;8.45;2.35;;;;;;;;;;5072648;28;20048;-87
2022/05/28 01:26:20;;;;;;;7.03;2.03;;;;;;;;;;5072728;28;20048;-86
2022/05/28 01:28:57;;;;;;;5.35;1.65;;;;;;;;;;5072615;28;20048;-86
2022/05/28 01:31:26;;;;;;;10.73;1.92;;;;;;;;;;5072692;28;20073;-86
2022/05/28 01:33:55;;;;;;;10.25;2.47;;;;;;;;;;5071473;28;20408;-86
2022/05/28 01:36:22;;;;;;;7.57;2.28;;;;;;;;;;5071547;28;20111;-86
2022/05/28 01:38:51;;;;;;;11.50;2.10;;;;;;;;;;5071592;28;20059;-86
2022/05/28 01:41:19;;;;;;;10.23;2.45;;;;;;;;;;5072705;28;20123;-86
2022/05/28 01:43:47;;;;;;;6.28;2.08;;;;;;;;;;5073057;28;20070;-85
2022/05/28 01:46:16;;;;;;;9.77;2.40;;;;;;;;;;5071383;28;20132;-86
2022/05/28 01:48:45;;;;;;;4.53;2.05;;;;;;;;;;5071365;28;20052;-86
2022/05/28 01:51:14;;;;;;;4.80;1.67;;;;;;;;;;5072692;28;20084;-86
2022/05/28 01:56:29;;;;;;;6.80;1.70;;;;;;;;;;5072265;28;20091;-86
2022/05/28 01:58:56;;;;;;;8.02;2.00;;;;;;;;;;5072241;28;20206;-86
2022/05/28 02:01:23;;;;;;;5.03;1.70;;;;;;;;;;5072385;28;20135;-86
2022/05/28 02:03:52;;;;;;;7.25;1.90;;;;;;;;;;5072140;28;20135;-86
2022/05/28 02:06:21;;;;;;;4.85;2.22;;;;;;;;;;5072370;28;20489;-86
2022/05/28 02:08:49;;;;;;;6.25;1.83;;;;;;;;;;5072195;28;20059;-85
2022/05/28 02:11:17;;;;;;;5.95;1.40;;;;;;;;;;5072244;28;20381;-86
2022/05/28 02:14:03;;;;;;;12.52;2.08;;;;;;;;;;5071145;28;20520;-85
2022/05/28 02:16:37;;;;;;;8.20;2.20;;;;;;;;;;5071385;28;20076;-86
2022/05/28 02:19:08;;;;;;;6.43;2.08;;;;;;;;;;5071234;28;20087;-86
2022/05/28 02:21:42;;;;;;;7.22;2.00;;;;;;;;;;5072113;28;20044;-86
2022/05/28 02:24:09;;;;;;;;;;;;;;;;;;5071402;28;20066;-86
2022/05/28 02:26:43;;;;;;;5.60;2.05;;;;;;;;;;5054700;28;19927;-86
2022/05/28 02:29:12;;;;;;;5.75;2.28;;;;;;;;;;5071197;28;20127;-86
2022/05/28 02:31:43;;;;;;;7.60;2.03;;;;;;;;;;5072202;28;20072;-86
2022/05/28 02:34:11;;;;;;;9.32;2.13;;;;;;;;;;5070895;28;20059;-86
2022/05/28 02:36:39;;;;;;;5.47;1.77;;;;;;;;;;5072637;28;20072;-86
2022/05/28 02:39:06;;;;;;;10.25;1.90;;;;;;;;;;5075150;28;20055;-86
2022/05/28 02:41:33;;;;;;;6.80;2.30;;;;;;;;;;5074909;28;20044;-86
2022/05/28 02:44:00;;;;;;;7.35;1.90;;;;;;;;;;5074769;28;20097;-85
2022/05/28 02:46:28;;;;;;;12.10;2.42;;;;;;;;;;5075800;28;20075;-85
2022/05/28 02:48:55;;;;;;;6.60;2.22;;;;;;;;;;5074419;28;20596;-86
2022/05/28 02:51:23;;;;;;;6.60;1.73;;;;;;;;;;5074579;28;20386;-85
2022/05/28 02:53:51;;;;;;;10.65;2.22;;;;;;;;;;5074562;28;20563;-85
2022/05/28 02:56:18;;;;;;;6.47;2.38;;;;;;;;;;5075195;28;20136;-85
2022/05/28 02:58:45;;;;;;;7.82;2.22;;;;;;;;;;5075731;28;20462;-86
2022/05/28 03:01:35;;;;;;;8.55;2.30;;;;;;;;;;5074374;28;20088;-85
2022/05/28 03:04:04;;;;;;;3.45;2.15;;;;;;;;;;5075205;28;20066;-86
2022/05/28 03:06:31;;;;;;;9.05;2.45;;;;;;;;;;5074398;28;20512;-86
2022/05/28 03:08:58;;;;;;;6.47;2.78;;;;;;;;;;5075361;28;20505;-86
2022/05/28 03:11:25;;;;;;;5.60;2.00;;;;;;;;;;5075169;28;20507;-86
2022/05/28 03:13:53;;;;;;;9.48;1.85;;;;;;;;;;5073564;28;20135;-85
2022/05/28 03:16:20;;;;;;;7.13;2.10;;;;;;;;;;5073832;28;20052;-86
2022/05/28 03:18:47;;;;;;;10.80;2.33;;;;;;;;;;5074155;28;20048;-86
2022/05/28 03:21:14;;;;;;;8.68;1.90;;;;;;;;;;5075279;28;20055;-86
2022/05/28 03:23:47;;;;;;;7.50;2.03;;;;;;;;;;5075718;28;20554;-86
2022/05/28 03:26:22;;;;;;;5.65;1.80;;;;;;;;;;5073593;28;20136;-86
2022/05/28 03:28:50;;;;;;;7.25;1.92;;;;;;;;;;5073578;28;20076;-86
2022/05/28 03:31:17;;;;;;;4.53;2.05;;;;;;;;;;5074884;28;20131;-86
2022/05/28 03:33:45;;;;;;;5.75;2.00;;;;;;;;;;5073972;28;20390;-86
2022/05/28 03:36:12;;;;;;;9.48;2.15;;;;;;;;;;5074848;28;20139;-86
2022/05/28 03:38:40;;;;;;;3.08;1.83;;;;;;;;;;5074770;28;20135;-86
2022/05/28 03:41:07;;;;;;;6.50;1.63;;;;;;;;;;5073536;28;20503;-86
2022/05/28 03:43:34;;;;;;;6.75;2.08;;;;;;;;;;5074706;28;20062;-86
2022/05/28 03:46:02;;;;;;;3.20;1.45;;;;;;;;;;5074718;28;20074;-86
2022/05/28 03:48:29;;;;;;;3.22;1.75;;;;;;;;;;5073783;28;20044;-86
2022/05/28 03:50:57;;;;;;;9.52;2.45;;;;;;;;;;5073303;28;20501;-86
2022/05/28 03:53:24;;;;;;;7.25;1.65;;;;;;;;;;5073472;28;20123;-86
2022/05/28 03:55:51;;;;;;;4.65;1.83;;;;;;;;;;5073233;28;20140;-86
2022/05/28 03:58:19;;;;;;;5.13;2.00;;;;;;;;;;5074263;28;20128;-86
2022/05/28 04:00:46;;;;;;;4.18;2.10;;;;;;;;;;5073231;28;20564;-86
2022/05/28 04:03:13;;;;;;;7.95;2.22;;;;;;;;;;5073055;28;20048;-86
2022/05/28 04:05:40;;;;;;;6.90;1.92;;;;;;;;;;5072793;28;20136;-86
2022/05/28 04:08:08;;;;;;;7.72;2.40;;;;;;;;;;5074148;28;20066;-86
2022/05/28 04:10:35;;;;;;;5.90;3.30;;;;;;;;;;5072893;28;20127;-86
2022/05/28 04:13:02;;;;;;;18.40;7.68;;;;;;;;;;5073621;28;20049;-86
2022/05/28 04:15:30;;;;;;;15.80;7.43;;;;;;;;;;5073559;28;20507;-86
2022/05/28 04:17:57;;;;;;;11.82;5.07;;;;;;;;;;5072678;28;20135;-86
2022/05/28 04:20:25;;;;;;;7.78;4.40;;;;;;;;;;5072567;28;20056;-86
2022/05/28 04:22:52;;;;;;;9.43;3.50;;;;;;;;;;5073715;28;20103;-86
2022/05/28 04:25:19;;;;;;;6.35;2.67;;;;;;;;;;5072593;28;20084;-86
2022/05/28 04:27:46;;;;;;;9.43;3.17;;;;;;;;;;5072468;28;20127;-86
2022/05/28 04:30:13;;;;;;;8.02;2.83;;;;;;;;;;5072822;28;20106;-86
2022/05/28 04:32:41;;;;;;;9.00;2.20;;;;;;;;;;5072371;28;20044;-85
2022/05/28 04:35:08;;;;;;;8.30;2.13;;;;;;;;;;5073311;28;20086;-87
2022/05/28 04:37:36;;;;;;;8.80;2.08;;;;;;;;;;5072521;28;20508;-86
2022/05/28 04:40:03;;;;;;;8.60;2.22;;;;;;;;;;5072136;28;20044;-86
2022/05/28 04:42:31;;;;;;;4.95;1.95;;;;;;;;;;5073512;28;20127;-86
2022/05/28 04:44:58;;;;;;;7.00;1.95;;;;;;;;;;5072066;28;20148;-86
2022/05/28 04:47:25;;;;;;;6.85;2.53;;;;;;;;;;5072567;28;20489;-85
2022/05/28 04:49:53;;;;;;;6.57;1.85;;;;;;;;;;5072311;28;20130;-86
2022/05/28 04:52:21;;;;;;;3.75;1.23;;;;;;;;;;5072163;28;20048;-86
2022/05/28 04:54:48;;;;;;;5.68;1.73;;;;;;;;;;5071518;28;20143;-87
2022/05/28 04:57:15;;;;;;;4.47;1.95;;;;;;;;;;5073216;28;20056;-86
2022/05/28 04:59:43;;;;;;;8.60;1.50;;;;;;;;;;5071792;28;20048;-87
2022/05/28 05:02:10;;;;;;;6.32;1.92;;;;;;;;;;5071967;28;20056;-86
2022/05/28 05:04:37;;;;;;;9.57;1.55;;;;;;;;;;5071918;28;20059;-86
2022/05/28 05:07:05;;;;;;;4.30;1.48;;;;;;;;;;5072267;28;20336;-87
2022/05/28 05:09:32;;;;;;;7.45;2.00;;;;;;;;;;5071823;28;20045;-86
2022/05/28 05:11:59;;;;;;;5.63;2.03;;;;;;;;;;5071891;28;20091;-86
2022/05/28 05:14:26;;;;;;;9.90;2.63;;;;;;;;;;5072736;28;20045;-87
2022/05/28 05:16:53;;;;;;;5.43;1.90;;;;;;;;;;5075695;28;20227;-86
2022/05/28 05:19:21;;;;;;;12.90;2.45;;;;;;;;;;5072295;28;20488;-85
2022/05/28 05:21:48;;;;;;;8.52;1.83;;;;;;;;;;5072870;28;20127;-86
2022/05/28 05:24:15;;;;;;;8.25;2.35;;;;;;;;;;5072793;28;20049;-86
2022/05/28 05:26:42;;;;;;;11.07;2.05;;;;;;;;;;5071964;28;20127;-87
2022/05/28 05:29:09;;;;;;;13.15;1.70;;;;;;;;;;5072503;28;20048;-86
2022/05/28 05:31:36;;;;;;;8.90;2.47;;;;;;;;;;5072641;28;20460;-86
2022/05/28 05:34:04;;;;;;;5.43;1.48;;;;;;;;;;5072417;28;20053;-87
2022/05/28 05:36:31;;;;;;;18.52;2.30;;;;;;;;;;5071700;28;20483;-85
2022/05/28 05:38:58;;;;;;;9.57;1.40;;;;;;;;;;5072477;28;20091;-87
2022/05/28 05:41:25;;;;;;;9.35;1.65;;;;;;;;;;5072875;28;20420;-86
2022/05/28 05:43:52;;;;;;;5.32;1.58;;;;;;;;;;5072138;28;20135;-86
2022/05/28 05:46:20;;;;;;;10.13;2.25;;;;;;;;;;5071524;28;20132;-86
2022/05/28 05:48:47;;;;;;;4.40;1.10;;;;;;;;;;5071485;28;20094;-87
2022/05/28 05:51:16;;;;;;;3.83;1.15;;;;;;;;;;5071710;28;20045;-87
2022/05/28 05:53:43;;;;;;;4.05;1.00;;;;;;;;;;5072899;28;20075;-86
2022/05/28 05:56:11;;;;;;;6.53;1.30;;;;;;;;;;5071755;28;20051;-87
2022/05/28 05:58:39;;;;;;;2.63;1.05;;;;;;;;;;5072743;28;20110;-88
2022/05/28 06:01:08;;;;;;;3.28;0.80;;;;;;;;;;5071654;28;20048;-87
2022/05/28 06:03:38;;;;;;;7.13;1.45;;;;;;;;;;5071876;28;20044;-87
2022/05/28 06:06:06;;;;;;;5.82;1.10;;;;;;;;;;5072698;28;20488;-88
2022/05/28 06:08:33;;;;;;;7.78;0.90;;;;;;;;;;5071791;28;20084;-88
2022/05/28 06:11:00;;;;;;;5.90;1.20;;;;;;;;;;5071978;28;20068;-87
2022/05/28 06:13:27;;;;;;;5.47;1.10;;;;;;;;;;5075513;28;20058;-87
2022/05/28 06:15:55;;;;;;;2.55;0.70;;;;;;;;;;5075245;28;20082;-91
2022/05/28 06:18:22;;;;;;;4.28;1.10;;;;;;;;;;5076619;28;20074;-89
2022/05/28 06:20:52;;;;;;;2.17;0.90;;;;;;;;;;5075828;28;20044;-86
2022/05/28 06:23:19;;;;;;;2.63;0.57;;;;;;;;;;5075377;28;20047;-86
2022/05/28 06:25:46;;;;;;;2.92;0.70;;;;;;;;;;5075001;28;20575;-89
2022/05/28 06:28:14;;;;;;;4.32;0.80;;;;;;;;;;5074894;28;20047;-88
2022/05/28 06:30:43;;;;;;;3.30;0.93;;;;;;;;;;5075044;28;20084;-87
2022/05/28 06:33:11;;;;;;;7.15;0.98;;;;;;;;;;5075990;28;20087;-87
2022/05/28 06:35:38;;;;;;;1.45;0.90;;;;;;;;;;5074757;28;20554;-85
2022/05/28 06:38:05;;;;;;;1.50;0.80;;;;;;;;;;5075892;28;20587;-84
2022/05/28 06:40:34;;;;;;;2.60;0.82;;;;;;;;;;5074768;28;20090;-84
2022/05/28 06:43:02;;;;;;;3.15;1.10;;;;;;;;;;5075801;28;20048;-86
2022/05/28 06:45:29;;;;;;;3.42;0.85;;;;;;;;;;5074630;28;20083;-84
2022/05/28 06:47:56;;;;;;;3.17;0.80;;;;;;;;;;5075658;28;20393;-88
2022/05/28 06:53:09;;;;;;;3.17;1.10;;;;;;;;;;5075794;28;20072;-85
2022/05/28 06:55:37;;;;;;;8.75;1.45;;;;;;;;;;5074422;28;20054;-84
2022/05/28 06:58:06;;;;;;;3.05;1.15;;;;;;;;;;5088056;28;20150;-85
2022/05/28 07:00:34;;;;;;;3.90;1.05;;;;;;;;;;5091451;28;20044;-85
2022/05/28 07:03:01;;;;;;;4.97;1.10;;;;;;;;;;5074099;28;20044;-86
2022/05/28 07:05:28;;;;;;;4.00;1.02;;;;;;;;;;5086693;28;20048;-84
2022/05/28 07:07:56;;;;;;;6.22;1.45;;;;;;;;;;5091112;28;20062;-84
2022/05/28 07:10:23;;;;;;;5.93;1.48;;;;;;;;;;5086202;28;20080;-87
2022/05/28 07:12:51;;;;;;;4.55;1.33;;;;;;;;;;5091337;28;20054;-86
2022/05/28 07:15:18;;;;;;;5.80;1.30;;;;;;;;;;5085954;28;20055;-86
2022/05/28 07:17:45;;;;;;;4.22;1.10;;;;;;;;;;5091660;28;20559;-87
2022/05/28 07:20:13;;;;;;;2.70;0.70;;;;;;;;;;5085232;28;20044;-87
2022/05/28 07:22:40;;;;;;;4.18;0.80;;;;;;;;;;5091994;28;20135;-87
2022/05/28 07:25:08;;;;;;;2.65;0.88;;;;;;;;;;5083773;28;20044;-85
2022/05/28 07:27:35;;;;;;;2.88;0.93;;;;;;;;;;5091363;28;20297;-85
2022/05/28 07:30:03;;;;;;;4.38;0.80;;;;;;;;;;5067529;28;20079;-86
2022/05/28 07:32:30;;;;;;;3.53;0.90;;;;;;;;;;5086772;28;20135;-87
2022/05/28 07:34:58;;;;;;;2.00;0.70;;;;;;;;;;5075004;28;20053;-85
2022/05/28 07:37:27;;;;;;;1.75;0.65;;;;;;;;;;5086456;28;20136;-86
2022/05/28 07:39:54;;;;;;;3.30;1.10;;;;;;;;;;5074964;28;20075;-85
2022/05/28 07:42:21;;;;;;;5.32;1.48;;;;;;;;;;5075044;28;20477;-86
2022/05/28 07:44:48;;;;;;;5.07;0.93;;;;;;;;;;5089020;28;20131;-88
2022/05/28 07:47:16;;;;;;;5.05;0.80;;;;;;;;;;5084541;28;20052;-87
2022/05/28 07:49:43;;;;;;;2.78;1.00;;;;;;;;;;5090469;28;20052;-88
2022/05/28 07:52:10;;;;;;;4.50;0.80;;;;;;;;;;5075176;28;20437;-89
2022/05/28 07:54:38;;;;;;;3.20;0.80;;;;;;;;;;5087505;28;20049;-91
2022/05/28 07:57:05;;;;;;;8.23;1.92;;;;;;;;;;5082940;28;20055;-89
2022/05/28 07:59:33;;;;;;;3.03;0.80;;;;;;;;;;5075353;28;20044;-88
2022/05/28 08:02:00;;;;;;;5.15;0.98;;;;;;;;;;5074933;28;20044;-87
2022/05/28 08:04:27;;;;;;;3.67;0.75;;;;;;;;;;5085746;28;20079;-88
2022/05/28 08:06:54;;;;;;;3.00;0.68;;;;;;;;;;5090533;28;20051;-89
2022/05/28 08:09:22;;;;;;;3.80;1.08;;;;;;;;;;5085280;28;20507;-88
2022/05/28 08:11:49;;;;;;;2.00;0.75;;;;;;;;;;5090436;28;20091;-88
2022/05/28 08:14:16;;;;;;;3.83;0.90;;;;;;;;;;5083992;28;20101;-88
2022/05/28 08:16:44;;;;;;;2.42;0.70;;;;;;;;;;5074706;28;20466;-87
2022/05/28 08:19:11;;;;;;;2.03;1.17;;;;;;;;;;5074657;28;20159;-89
2022/05/28 08:24:24;;;;;;;2.55;0.85;;;;;;;;;;5074443;28;20132;-89
2022/05/28 08:26:51;;;;;;;4.18;0.70;;;;;;;;;;5088598;28;20139;-87
2022/05/28 08:29:22;;;;;;;1.98;0.80;;;;;;;;;;5083996;28;20135;-87
2022/05/28 08:31:49;;;;;;;2.13;0.75;;;;;;;;;;5089794;28;20044;-88
2022/05/28 08:34:17;;;;;;;6.00;0.82;;;;;;;;;;5083077;28;20049;-87
2022/05/28 08:36:44;;;;;;;3.20;0.77;;;;;;;;;;5090261;28;20226;-87
2022/05/28 08:39:14;;;;;;;6.88;0.98;;;;;;;;;;5082939;28;20125;-88
2022/05/28 08:41:46;;;;;;;4.30;1.10;;;;;;;;;;5089709;28;20051;-88
2022/05/28 08:44:15;;;;;;;4.22;0.88;;;;;;;;;;5083022;28;20652;-91
2022/05/28 08:46:43;;;;;;;3.38;0.90;;;;;;;;;;5073723;28;20049;-87
2022/05/28 08:49:12;;;;;;;11.63;1.65;;;;;;;;;;5082251;28;20056;-87
2022/05/28 08:51:46;;;;;;;2.33;0.70;;;;;;;;;;5089688;28;20414;-89
2022/05/28 08:54:16;;;;;;;3.33;0.80;;;;;;;;;;5082490;28;20083;-88
2022/05/28 08:56:44;;;;;;;3.20;0.73;;;;;;;;;;5068029;28;20063;-88
2022/05/28 08:59:24;;;;;;;4.00;1.15;;;;;;;;;;5052507;28;20055;-87
2022/05/28 09:01:56;;;;;;;3.38;0.70;;;;;;;;;;5053446;28;20141;-87
2022/05/28 09:04:30;;;;;;;1.75;0.70;;;;;;;;;;5052941;28;20474;-87
2022/05/28 09:06:59;;;;;;;2.58;0.60;;;;;;;;;;5052393;28;20045;-88
2022/05/28 09:09:35;;;;;;;2.97;0.73;;;;;;;;;;5052547;28;20107;-87
2022/05/28 09:12:04;;;;;;;5.72;0.90;;;;;;;;;;5052356;28;20080;-87
2022/05/28 09:14:33;;;;;;;2.88;1.00;;;;;;;;;;5053352;28;20049;-87
2022/05/28 09:17:18;;;;;;;3.25;1.17;;;;;;;;;;5043939;28;20055;-87
2022/05/28 09:19:45;;;;;;;1.73;0.63;;;;;;;;;;5053587;28;20660;-89
2022/05/28 09:22:13;;;;;;;2.13;0.70;;;;;;;;;;5052528;28;20067;-88
2022/05/28 09:24:41;;;;;;;5.55;0.70;;;;;;;;;;5052709;28;20103;-87
2022/05/28 09:27:14;;;;;;;3.47;0.93;;;;;;;;;;5052030;28;20144;-88
2022/05/28 09:29:41;;;;;;;3.70;1.15;;;;;;;;;;5052426;28;20060;-88
2022/05/28 09:32:23;;;;;;;3.15;0.75;;;;;;;;;;5052076;28;20061;-89
2022/05/28 09:34:50;;;;;;;2.22;0.63;;;;;;;;;;5052267;28;20429;-86
2022/05/28 09:37:17;;;;;;;1.98;0.70;;;;;;;;;;5053557;28;20049;-89
2022/05/28 09:40:08;;;;;;;1.85;0.88;;;;;;;;;;5052171;28;20140;-86
2022/05/28 09:42:44;;;;;;;2.72;0.70;;;;;;;;;;5043572;28;20045;-88
2022/05/28 09:45:18;;;;;;;1.52;0.80;;;;;;;;;;5053040;28;20063;-88
2022/05/28 09:47:46;;;;;;;1.88;0.50;;;;;;;;;;5056182;28;20548;-88
2022/05/28 09:50:18;;;;;;;1.67;0.70;;;;;;;;;;5055984;28;20124;-88
2022/05/28 09:55:53;;;;;;;6.25;1.00;;;;;;;;;;5026707;28;20067;-87
2022/05/28 09:58:22;;;;;;;1.63;0.65;;;;;;;;;;5057166;28;20063;-89
2022/05/28 10:00:50;;;;;;;1.00;0.60;;;;;;;;;;5055845;28;20120;-88
2022/05/28 10:06:15;;;;;;;5.65;1.00;;;;;;;;;;5057133;28;20052;-88
2022/05/28 10:08:43;;;;;;;5.75;0.60;;;;;;;;;;5056874;28;20493;-91
2022/05/28 10:11:13;;;;;;;1.73;0.70;;;;;;;;;;5055909;28;20543;-86
2022/05/28 10:13:45;;;;;;;1.38;0.40;;;;;;;;;;5056882;28;20049;-87
2022/05/28 10:16:14;;;;;;;2.03;0.80;;;;;;;;;;5056749;28;20143;-88
2022/05/28 10:19:02;;;;;;;4.00;0.57;;;;;;;;;;5056428;28;20049;-86
2022/05/28 10:21:38;;;;;;;1.40;0.70;;;;;;;;;;5055588;28;20065;-87
2022/05/28 10:24:13;;;;;;;2.17;0.40;;;;;;;;;;5056698;28;20076;-86
2022/05/28 10:26:45;;;;;;;2.38;0.70;;;;;;;;;;5055467;28;20413;-89
2022/05/28 10:29:20;;;;;;;2.35;0.60;;;;;;;;;;5055552;28;20049;-87
2022/05/28 10:31:49;;;;;;;2.75;0.50;;;;;;;;;;5055204;28;20140;-87
2022/05/28 10:34:25;;;;;;;1.63;0.70;;;;;;;;;;5054985;28;20049;-87
2022/05/28 10:36:52;;;;;;;1.77;0.70;;;;;;;;;;5055125;28;20500;-85
2022/05/28 10:39:20;;;;;;;3.00;0.70;;;;;;;;;;5055141;28;20136;-85
2022/05/28 10:41:51;;;;;;;0.90;0.40;;;;;;;;;;5055396;28;20471;-86
2022/05/28 10:44:19;;;;;;;4.28;0.75;;;;;;;;;;5055039;28;20076;-91
2022/05/28 10:46:55;;;;;;;0.93;0.70;;;;;;;;;;5055022;28;20084;-88
2022/05/28 10:49:40;;;;;;;2.17;0.80;;;;;;;;;;5055249;28;20063;-87
2022/05/28 10:52:13;;;;;;;2.22;0.75;;;;;;;;;;5056292;28;20052;-86
2022/05/28 10:55:19;;;;;;;2.05;0.75;;;;;;;;;;5054972;28;20095;-89
2022/05/28 10:57:55;;;;;;;3.70;1.10;;;;;;;;;;4958946;28;20138;-94
2022/05/28 11:00:27;;;;;;;3.05;0.50;;;;;;;;;;4959495;28;20612;-88
2022/05/28 11:02:57;;;;;;;2.15;0.50;;;;;;;;;;5022535;28;20048;-91
2022/05/28 11:05:24;;;;;;;5.15;1.13;;;;;;;;;;5038785;28;20132;-92
2022/05/28 11:08:01;;;;;;;1.77;0.50;;;;;;;;;;5043557;28;20128;-88
2022/05/28 11:10:35;;;;;;;2.63;0.65;;;;;;;;;;5056723;28;20045;-88
2022/05/28 11:13:08;;;;;;;2.53;0.80;;;;;;;;;;5038388;28;20057;-89
2022/05/28 11:15:48;;;;;;;1.00;0.43;;;;;;;;;;5038009;28;20143;-86
2022/05/28 11:18:24;;;;;;;2.15;0.60;;;;;;;;;;5038679;28;20554;-88
2022/05/28 11:20:59;;;;;;;1.10;0.50;;;;;;;;;;5038071;28;20052;-86
2022/05/28 11:23:48;;;;;;;3.08;0.70;;;;;;;;;;5038147;28;20140;-87
2022/05/28 11:26:34;;;;;;;1.35;0.52;;;;;;;;;;5037823;28;20485;-89
2022/05/28 11:29:04;;;;;;;1.55;0.70;;;;;;;;;;5037931;28;20485;-88
2022/05/28 11:31:55;;;;;;;3.05;0.55;;;;;;;;;;5038021;28;20051;-87
2022/05/28 11:34:34;;;;;;;2.53;0.55;;;;;;;;;;5025595;28;20053;-86
2022/05/28 11:37:04;;;;;;;1.25;0.40;;;;;;;;;;5038182;28;20140;-87
2022/05/28 11:39:43;;;;;;;1.80;0.30;;;;;;;;;;5038245;28;20075;-87
2022/05/28 11:42:21;;;;;;;1.23;0.40;;;;;;;;;;5038326;28;20052;-87
2022/05/28 11:44:52;;;;;;;1.50;0.60;;;;;;;;;;5037476;28;20076;-88
2022/05/28 11:47:30;;;;;;;1.70;0.57;;;;;;;;;;5037418;28;20060;-86
2022/05/28 11:53:03;;;;;;;2.72;0.60;;;;;;;;;;5054901;28;20057;-86
2022/05/28 11:55:33;;;;;;;3.35;2.00;;;;;;;;;;5036895;28;20069;-86
2022/05/28 11:58:07;;;;;;;2.63;0.75;;;;;;;;;;5025631;28;20141;-87
2022/05/28 12:00:37;;;;;;;2.15;0.50;;;;;;;;;;5034202;28;20573;-85
2022/05/28 12:03:09;;;;;;;5.38;0.75;;;;;;;;;;5037307;28;20136;-85
2022/05/28 12:05:40;;;;;;;3.45;0.70;;;;;;;;;;5037082;28;20049;-87
2022/05/28 12:08:07;;;;;;;2.67;0.68;;;;;;;;;;5037241;28;20080;-87
2022/05/28 12:10:34;;;;;;;3.30;0.80;;;;;;;;;;5036872;28;20532;-87
2022/05/28 12:13:02;;;;;;;2.47;0.75;;;;;;;;;;5055680;28;20140;-87
2022/05/28 12:15:31;;;;;;;3.17;0.55;;;;;;;;;;5054543;28;20049;-87
2022/05/28 12:18:07;;;;;;;2.05;0.60;;;;;;;;;;5037080;28;20048;-86
2022/05/28 12:20:36;;;;;;;3.58;0.63;;;;;;;;;;5036739;28;20136;-86
2022/05/28 12:23:05;;;;;;;2.58;0.70;;;;;;;;;;5037509;28;20485;-85
2022/05/28 12:25:37;;;;;;;2.33;0.70;;;;;;;;;;5037064;28;20052;-88
2022/05/28 12:28:11;;;;;;;2.88;0.55;;;;;;;;;;5035912;28;20136;-88
2022/05/28 12:30:43;;;;;;;1.70;0.50;;;;;;;;;;5036438;28;20056;-87
2022/05/28 12:33:21;;;;;;;7.78;0.88;;;;;;;;;;5054271;28;20060;-88
2022/05/28 12:35:51;;;;;;;1.52;0.77;;;;;;;;;;5036215;28;20048;-86
2022/05/28 12:38:37;;;;;;;4.90;0.70;;;;;;;;;;5054818;28;20076;-85
2022/05/28 12:41:05;;;;;;;2.25;0.50;;;;;;;;;;5053943;28;20148;-87
2022/05/28 12:43:36;;;;;;;1.67;0.50;;;;;;;;;;5054113;28;20132;-90
2022/05/28 12:46:21;;;;;;;2.33;0.57;;;;;;;;;;5036256;28;20107;-86
2022/05/28 12:48:50;;;;;;;1.75;0.45;;;;;;;;;;5036468;28;20073;-89
2022/05/28 12:51:17;;;;;;;0.98;0.40;;;;;;;;;;5053796;28;20091;-89
2022/05/28 12:53:51;;;;;;;1.75;0.50;;;;;;;;;;5036326;28;20103;-86
2022/05/28 12:56:33;;;;;;;2.33;0.60;;;;;;;;;;5036346;28;20136;-87
2022/05/28 12:59:11;;;;;;;2.30;0.70;;;;;;;;;;5054118;28;20102;-90
2022/05/28 13:01:41;;;;;;;2.25;0.68;;;;;;;;;;5052755;28;20076;-89
2022/05/28 13:04:18;;;;;;;3.95;0.73;;;;;;;;;;5052482;28;20041;-87
2022/05/28 13:06:50;;;;;;;2.45;0.60;;;;;;;;;;5053950;28;20085;-89
2022/05/28 13:09:21;;;;;;;1.85;0.55;;;;;;;;;;5052773;28;20317;-90
2022/05/28 13:12:03;;;;;;;3.05;0.50;;;;;;;;;;5052958;28;20132;-87
2022/05/28 13:14:51;;;;;;;2.95;0.50;;;;;;;;;;5052294;28;20560;-88
2022/05/28 13:17:37;;;;;;;4.35;0.80;;;;;;;;;;5036478;28;20072;-88
2022/05/28 13:20:05;;;;;;;1.77;0.60;;;;;;;;;;5052299;28;20045;-88
2022/05/28 13:22:44;;;;;;;1.67;0.30;;;;;;;;;;5052485;28;20063;-89
2022/05/28 13:25:23;;;;;;;2.53;0.50;;;;;;;;;;5052229;28;20156;-87
2022/05/28 13:27:56;;;;;;;2.25;0.60;;;;;;;;;;5052803;28;20404;-88
2022/05/28 13:30:27;;;;;;;6.65;1.05;;;;;;;;;;5052496;28;20083;-88
2022/05/28 13:32:56;;;;;;;3.47;0.80;;;;;;;;;;5053522;28;20053;-89
2022/05/28 13:35:23;;;;;;;2.75;0.60;;;;;;;;;;5053066;28;20057;-89
2022/05/28 13:37:55;;;;;;;2.20;0.60;;;;;;;;;;5052483;28;20079;-88
2022/05/28 13:40:24;;;;;;;1.85;0.43;;;;;;;;;;5052733;28;20080;-90
2022/05/28 13:42:53;;;;;;;3.88;0.50;;;;;;;;;;5053488;28;20557;-87
2022/05/28 13:45:22;;;;;;;2.80;0.68;;;;;;;;;;5053072;28;20127;-88
2022/05/28 13:47:50;;;;;;;1.30;0.73;;;;;;;;;;5053283;28;20045;-90
2022/05/28 13:50:22;;;;;;;0.90;0.40;;;;;;;;;;5053542;28;20470;-88
2022/05/28 13:52:50;;;;;;;2.00;0.60;;;;;;;;;;5052749;28;20383;-91
2022/05/28 13:55:22;;;;;;;1.63;0.60;;;;;;;;;;5052228;28;20127;-88
2022/05/28 13:57:49;;;;;;;2.65;0.50;;;;;;;;;;5052019;28;20096;-86
2022/05/28 14:00:18;;;;;;;1.42;0.43;;;;;;;;;;5051712;28;20088;-87
2022/05/28 14:02:56;;;;;;;3.58;0.60;;;;;;;;;;5053113;28;20139;-89
2022/05/28 14:05:27;;;;;;;1.83;0.70;;;;;;;;;;5051850;28;20071;-87
2022/05/28 14:07:54;;;;;;;3.28;0.63;;;;;;;;;;5052995;28;20099;-87
2022/05/28 14:10:23;;;;;;;1.88;0.70;;;;;;;;;;5053156;28;20041;-87
2022/05/28 14:12:50;;;;;;;2.33;0.77;;;;;;;;;;5051810;28;20080;-89
2022/05/28 14:15:19;;;;;;;2.35;0.70;;;;;;;;;;5052891;28;20136;-88
2022/05/28 14:17:46;;;;;;;4.18;0.63;;;;;;;;;;5052021;28;20080;-87
2022/05/28 14:20:22;;;;;;;0.75;0.55;;;;;;;;;;5051982;28;20056;-88
2022/05/28 14:22:50;;;;;;;1.88;0.50;;;;;;;;;;5051810;28;20140;-84
2022/05/28 14:25:22;;;;;;;2.00;0.50;;;;;;;;;;5051442;28;20141;-87
2022/05/28 14:27:55;;;;;;;3.22;0.63;;;;;;;;;;5052035;28;20048;-91
2022/05/28 14:30:23;;;;;;;2.75;0.45;;;;;;;;;;5052061;28;20045;-88
2022/05/28 14:32:51;;;;;;;2.67;0.60;;;;;;;;;;5053506;28;20452;-87
2022/05/28 14:35:40;;;;;;;2.05;0.50;;;;;;;;;;5055213;28;20048;-87
2022/05/28 14:38:08;;;;;;;1.33;0.50;;;;;;;;;;5055109;28;20410;-87
2022/05/28 14:40:36;;;;;;;0.70;0.50;;;;;;;;;;5055350;28;20564;-87
2022/05/28 14:43:04;;;;;;;1.63;0.40;;;;;;;;;;5056107;28;20057;-86
2022/05/28 14:45:33;;;;;;;1.92;0.47;;;;;;;;;;5056127;28;20477;-86
2022/05/28 14:48:01;;;;;;;1.52;0.57;;;;;;;;;;5056069;28;20071;-86
2022/05/28 14:50:34;;;;;;;1.48;0.57;;;;;;;;;;5054645;28;20055;-86
2022/05/28 14:53:02;;;;;;;1.02;0.38;;;;;;;;;;5054954;28;20049;-85
2022/05/28 14:55:34;;;;;;;4.47;0.50;;;;;;;;;;5054894;28;20049;-89
2022/05/28 14:58:14;;;;;;;1.50;0.68;;;;;;;;;;5047987;28;20084;-87
2022/05/28 15:00:41;;;;;;;3.70;0.55;;;;;;;;;;5056097;28;20509;-87
2022/05/28 15:03:10;;;;;;;5.28;0.57;;;;;;;;;;5054905;28;20132;-89
2022/05/28 15:05:37;;;;;;;4.03;0.60;;;;;;;;;;5054679;28;20421;-88
2022/05/28 15:08:06;;;;;;;2.70;0.57;;;;;;;;;;5055096;28;20128;-87
2022/05/28 15:10:43;;;;;;;2.90;0.60;;;;;;;;;;5055368;28;20077;-89
2022/05/28 15:13:14;;;;;;;3.53;1.02;;;;;;;;;;5055067;28;20604;-88
2022/05/28 15:15:42;;;;;;;2.25;0.50;;;;;;;;;;5054783;28;20056;-88
2022/05/28 15:18:10;;;;;;;1.25;0.52;;;;;;;;;;5054788;28;20048;-89